TAF and METAR

METAR for Aktion Airport

LGPZ 192050Z 00000KT CAVOK 17/17 Q1020
Report created 19. okt 22:50
wind 0 knots from N (000°) Clear sky Temperature 17° with dewpoint at 17° (Humidity 100.00%) Pressure 1020 hPa

TAF for Aktion Airport

TAF LGPZ 191700Z 1918/2018 27006KT 9999 FEW018 PROB30 2000/2006 5000 BR SCT010
Report created 19. okt 19:00

between 19. okt 20:00 - 20. okt 20:00

wind 6 knots from W (270°) visibility > 10km some clouds (~25% cover) at 1800 feet

probably (~30%) between 20. okt 02:00 - 20. okt 08:00

visibility 5000 meters mist scattered clouds (~50% cover) at 1000 feet